sensor_id;sensor_type;location;lat;lon;timestamp;P1;durP1;ratioP1;P2;durP2;ratioP2
13291;SDS011;6714;53.056;8.690;2022-12-29T00:00:47;4.23;;;3.93;;
13291;SDS011;6714;53.056;8.690;2022-12-29T00:03:29;4.30;;;3.90;;
13291;SDS011;6714;53.056;8.690;2022-12-29T00:06:11;4.10;;;3.80;;
13291;SDS011;6714;53.056;8.690;2022-12-29T00:08:54;4.60;;;4.30;;
13291;SDS011;6714;53.056;8.690;2022-12-29T00:11:36;4.20;;;3.80;;
13291;SDS011;6714;53.056;8.690;2022-12-29T00:14:18;3.93;;;3.57;;
13291;SDS011;6714;53.056;8.690;2022-12-29T00:17:20;4.20;;;3.90;;
13291;SDS011;6714;53.056;8.690;2022-12-29T00:20:02;4.10;;;3.90;;
13291;SDS011;6714;53.056;8.690;2022-12-29T00:23:02;3.97;;;3.67;;
13291;SDS011;6714;53.056;8.690;2022-12-29T00:26:02;4.10;;;3.80;;
13291;SDS011;6714;53.056;8.690;2022-12-29T00:29:02;4.13;;;3.80;;
13291;SDS011;6714;53.056;8.690;2022-12-29T00:32:03;5.07;;;4.73;;
13291;SDS011;6714;53.056;8.690;2022-12-29T00:35:06;6.20;;;5.70;;
13291;SDS011;6714;53.056;8.690;2022-12-29T00:37:52;4.10;;;3.80;;
13291;SDS011;6714;53.056;8.690;2022-12-29T00:40:51;4.40;;;4.10;;
13291;SDS011;6714;53.056;8.690;2022-12-29T00:43:51;4.83;;;4.43;;
13291;SDS011;6714;53.056;8.690;2022-12-29T00:46:50;4.63;;;4.33;;
13291;SDS011;6714;53.056;8.690;2022-12-29T00:49:32;5.07;;;4.77;;
13291;SDS011;6714;53.056;8.690;2022-12-29T00:52:14;5.23;;;4.73;;
13291;SDS011;6714;53.056;8.690;2022-12-29T00:54:57;4.83;;;4.53;;
13291;SDS011;6714;53.056;8.690;2022-12-29T00:57:39;6.27;;;5.77;;
13291;SDS011;6714;53.056;8.690;2022-12-29T01:00:21;4.73;;;4.43;;
13291;SDS011;6714;53.056;8.690;2022-12-29T01:03:03;5.27;;;4.87;;
13291;SDS011;6714;53.056;8.690;2022-12-29T01:05:45;5.13;;;4.73;;
13291;SDS011;6714;53.056;8.690;2022-12-29T01:08:29;4.60;;;4.30;;
13291;SDS011;6714;53.056;8.690;2022-12-29T01:11:12;4.93;;;4.63;;
13291;SDS011;6714;53.056;8.690;2022-12-29T01:13:53;5.27;;;4.83;;
13291;SDS011;6714;53.056;8.690;2022-12-29T01:16:35;7.00;;;6.50;;
13291;SDS011;6714;53.056;8.690;2022-12-29T01:19:18;6.53;;;6.03;;
13291;SDS011;6714;53.056;8.690;2022-12-29T01:22:00;5.70;;;4.90;;
13291;SDS011;6714;53.056;8.690;2022-12-29T01:24:44;5.10;;;4.70;;
13291;SDS011;6714;53.056;8.690;2022-12-29T01:27:26;5.90;;;5.50;;
13291;SDS011;6714;53.056;8.690;2022-12-29T01:30:08;5.83;;;5.37;;
13291;SDS011;6714;53.056;8.690;2022-12-29T01:32:51;5.93;;;5.47;;
13291;SDS011;6714;53.056;8.690;2022-12-29T01:35:33;5.37;;;4.83;;
13291;SDS011;6714;53.056;8.690;2022-12-29T01:38:15;4.50;;;4.20;;
13291;SDS011;6714;53.056;8.690;2022-12-29T01:40:59;4.90;;;4.50;;
13291;SDS011;6714;53.056;8.690;2022-12-29T01:43:42;5.27;;;4.90;;
13291;SDS011;6714;53.056;8.690;2022-12-29T01:46:25;5.20;;;4.83;;
13291;SDS011;6714;53.056;8.690;2022-12-29T01:49:09;4.80;;;4.50;;
13291;SDS011;6714;53.056;8.690;2022-12-29T01:51:53;4.80;;;4.50;;
13291;SDS011;6714;53.056;8.690;2022-12-29T01:54:37;4.87;;;4.57;;
13291;SDS011;6714;53.056;8.690;2022-12-29T01:57:23;5.73;;;5.33;;
13291;SDS011;6714;53.056;8.690;2022-12-29T02:00:07;4.90;;;4.60;;
13291;SDS011;6714;53.056;8.690;2022-12-29T02:02:51;6.00;;;5.50;;
13291;SDS011;6714;53.056;8.690;2022-12-29T02:05:34;5.37;;;4.97;;
13291;SDS011;6714;53.056;8.690;2022-12-29T02:08:18;4.90;;;4.60;;
13291;SDS011;6714;53.056;8.690;2022-12-29T02:11:01;4.97;;;4.43;;
13291;SDS011;6714;53.056;8.690;2022-12-29T02:13:45;5.60;;;5.20;;
13291;SDS011;6714;53.056;8.690;2022-12-29T02:16:33;4.57;;;4.27;;
13291;SDS011;6714;53.056;8.690;2022-12-29T02:22:23;4.43;;;4.13;;
13291;SDS011;6714;53.056;8.690;2022-12-29T02:25:14;4.60;;;4.30;;
13291;SDS011;6714;53.056;8.690;2022-12-29T02:28:09;5.77;;;5.37;;
13291;SDS011;6714;53.056;8.690;2022-12-29T02:31:02;4.57;;;4.27;;
13291;SDS011;6714;53.056;8.690;2022-12-29T02:33:50;6.10;;;5.60;;
13291;SDS011;6714;53.056;8.690;2022-12-29T02:36:40;4.50;;;4.30;;
13291;SDS011;6714;53.056;8.690;2022-12-29T02:39:27;4.60;;;4.30;;
13291;SDS011;6714;53.056;8.690;2022-12-29T02:42:13;4.70;;;4.40;;
13291;SDS011;6714;53.056;8.690;2022-12-29T02:44:59;4.40;;;4.10;;
13291;SDS011;6714;53.056;8.690;2022-12-29T02:47:47;4.97;;;4.67;;
13291;SDS011;6714;53.056;8.690;2022-12-29T02:50:31;5.10;;;4.80;;
13291;SDS011;6714;53.056;8.690;2022-12-29T02:53:16;4.83;;;4.53;;
13291;SDS011;6714;53.056;8.690;2022-12-29T02:56:20;4.90;;;4.60;;
13291;SDS011;6714;53.056;8.690;2022-12-29T02:59:01;5.07;;;4.73;;
13291;SDS011;6714;53.056;8.690;2022-12-29T03:01:48;4.87;;;4.57;;
13291;SDS011;6714;53.056;8.690;2022-12-29T03:04:53;5.20;;;4.80;;
13291;SDS011;6714;53.056;8.690;2022-12-29T03:07:40;4.27;;;4.07;;
13291;SDS011;6714;53.056;8.690;2022-12-29T03:10:29;4.63;;;4.33;;
13291;SDS011;6714;53.056;8.690;2022-12-29T03:13:17;4.83;;;4.53;;
13291;SDS011;6714;53.056;8.690;2022-12-29T03:16:22;4.70;;;4.40;;
13291;SDS011;6714;53.056;8.690;2022-12-29T03:19:06;4.93;;;4.63;;
13291;SDS011;6714;53.056;8.690;2022-12-29T03:21:52;4.30;;;4.00;;
13291;SDS011;6714;53.056;8.690;2022-12-29T03:24:55;4.13;;;3.93;;
13291;SDS011;6714;53.056;8.690;2022-12-29T03:27:39;3.80;;;3.57;;
13291;SDS011;6714;53.056;8.690;2022-12-29T03:30:23;3.83;;;3.63;;
13291;SDS011;6714;53.056;8.690;2022-12-29T03:33:06;3.53;;;3.33;;
13291;SDS011;6714;53.056;8.690;2022-12-29T03:35:50;3.67;;;3.40;;
13291;SDS011;6714;53.056;8.690;2022-12-29T03:38:37;3.77;;;3.47;;
13291;SDS011;6714;53.056;8.690;2022-12-29T03:41:23;3.33;;;3.13;;
13291;SDS011;6714;53.056;8.690;2022-12-29T03:44:06;3.60;;;3.40;;
13291;SDS011;6714;53.056;8.690;2022-12-29T03:46:48;3.30;;;3.10;;
13291;SDS011;6714;53.056;8.690;2022-12-29T03:49:31;3.20;;;3.10;;
13291;SDS011;6714;53.056;8.690;2022-12-29T03:52:14;3.30;;;3.10;;
13291;SDS011;6714;53.056;8.690;2022-12-29T03:54:57;3.00;;;2.80;;
13291;SDS011;6714;53.056;8.690;2022-12-29T03:57:39;3.07;;;2.97;;
13291;SDS011;6714;53.056;8.690;2022-12-29T04:00:22;3.37;;;3.17;;
13291;SDS011;6714;53.056;8.690;2022-12-29T04:03:04;2.90;;;2.80;;
13291;SDS011;6714;53.056;8.690;2022-12-29T04:05:46;2.73;;;2.63;;
13291;SDS011;6714;53.056;8.690;2022-12-29T04:08:28;3.10;;;2.90;;
13291;SDS011;6714;53.056;8.690;2022-12-29T04:11:12;2.87;;;2.77;;
13291;SDS011;6714;53.056;8.690;2022-12-29T04:13:54;2.90;;;2.80;;
13291;SDS011;6714;53.056;8.690;2022-12-29T04:16:36;3.00;;;2.90;;
13291;SDS011;6714;53.056;8.690;2022-12-29T04:19:18;3.13;;;2.93;;
13291;SDS011;6714;53.056;8.690;2022-12-29T04:22:01;3.10;;;2.90;;
13291;SDS011;6714;53.056;8.690;2022-12-29T04:24:43;3.17;;;3.03;;
13291;SDS011;6714;53.056;8.690;2022-12-29T04:27:26;3.47;;;3.27;;
13291;SDS011;6714;53.056;8.690;2022-12-29T04:30:09;2.80;;;2.70;;
13291;SDS011;6714;53.056;8.690;2022-12-29T04:32:52;2.70;;;2.60;;
13291;SDS011;6714;53.056;8.690;2022-12-29T04:35:34;3.33;;;3.00;;
13291;SDS011;6714;53.056;8.690;2022-12-29T04:38:16;3.23;;;3.03;;
13291;SDS011;6714;53.056;8.690;2022-12-29T04:40:59;3.30;;;3.10;;
13291;SDS011;6714;53.056;8.690;2022-12-29T04:43:43;3.40;;;3.10;;
13291;SDS011;6714;53.056;8.690;2022-12-29T04:46:25;3.07;;;2.87;;
13291;SDS011;6714;53.056;8.690;2022-12-29T04:49:07;3.37;;;3.10;;
13291;SDS011;6714;53.056;8.690;2022-12-29T04:51:49;3.30;;;3.10;;
13291;SDS011;6714;53.056;8.690;2022-12-29T04:54:31;3.50;;;3.20;;
13291;SDS011;6714;53.056;8.690;2022-12-29T04:57:13;2.90;;;2.80;;
13291;SDS011;6714;53.056;8.690;2022-12-29T04:59:57;3.50;;;3.30;;
13291;SDS011;6714;53.056;8.690;2022-12-29T05:02:39;3.03;;;2.93;;
13291;SDS011;6714;53.056;8.690;2022-12-29T05:05:21;2.70;;;2.50;;
13291;SDS011;6714;53.056;8.690;2022-12-29T05:08:04;2.50;;;2.40;;
13291;SDS011;6714;53.056;8.690;2022-12-29T05:10:46;2.47;;;2.33;;
13291;SDS011;6714;53.056;8.690;2022-12-29T05:13:28;2.67;;;2.57;;
13291;SDS011;6714;53.056;8.690;2022-12-29T05:16:12;3.10;;;2.90;;
13291;SDS011;6714;53.056;8.690;2022-12-29T05:18:54;2.37;;;2.27;;
13291;SDS011;6714;53.056;8.690;2022-12-29T05:21:36;2.43;;;2.33;;
13291;SDS011;6714;53.056;8.690;2022-12-29T05:24:18;2.67;;;2.50;;
13291;SDS011;6714;53.056;8.690;2022-12-29T05:27:01;2.53;;;2.40;;
13291;SDS011;6714;53.056;8.690;2022-12-29T05:29:43;2.40;;;2.30;;
13291;SDS011;6714;53.056;8.690;2022-12-29T05:32:26;2.27;;;2.10;;
13291;SDS011;6714;53.056;8.690;2022-12-29T05:35:09;2.10;;;2.00;;
13291;SDS011;6714;53.056;8.690;2022-12-29T05:37:51;2.00;;;1.90;;
13291;SDS011;6714;53.056;8.690;2022-12-29T05:40:33;1.87;;;1.77;;
13291;SDS011;6714;53.056;8.690;2022-12-29T05:43:15;2.10;;;2.00;;
13291;SDS011;6714;53.056;8.690;2022-12-29T05:45:57;1.70;;;1.60;;
13291;SDS011;6714;53.056;8.690;2022-12-29T05:48:41;2.03;;;1.90;;
13291;SDS011;6714;53.056;8.690;2022-12-29T05:51:23;2.37;;;2.27;;
13291;SDS011;6714;53.056;8.690;2022-12-29T05:54:05;2.30;;;2.10;;
13291;SDS011;6714;53.056;8.690;2022-12-29T05:56:47;3.07;;;2.27;;
13291;SDS011;6714;53.056;8.690;2022-12-29T05:59:29;2.83;;;2.63;;
13291;SDS011;6714;53.056;8.690;2022-12-29T06:02:13;2.27;;;2.17;;
13291;SDS011;6714;53.056;8.690;2022-12-29T06:04:56;3.40;;;3.20;;
13291;SDS011;6714;53.056;8.690;2022-12-29T06:07:39;2.53;;;2.40;;
13291;SDS011;6714;53.056;8.690;2022-12-29T06:10:21;3.27;;;3.03;;
13291;SDS011;6714;53.056;8.690;2022-12-29T06:13:03;2.30;;;2.20;;
13291;SDS011;6714;53.056;8.690;2022-12-29T06:15:47;2.60;;;2.50;;
13291;SDS011;6714;53.056;8.690;2022-12-29T06:18:30;2.53;;;2.33;;
13291;SDS011;6714;53.056;8.690;2022-12-29T06:21:13;2.23;;;2.10;;
13291;SDS011;6714;53.056;8.690;2022-12-29T06:23:55;2.60;;;2.40;;
13291;SDS011;6714;53.056;8.690;2022-12-29T06:26:38;2.53;;;2.43;;
13291;SDS011;6714;53.056;8.690;2022-12-29T06:29:20;2.73;;;2.50;;
13291;SDS011;6714;53.056;8.690;2022-12-29T06:32:02;2.17;;;2.07;;
13291;SDS011;6714;53.056;8.690;2022-12-29T06:34:44;2.30;;;2.10;;
13291;SDS011;6714;53.056;8.690;2022-12-29T06:37:28;2.40;;;2.20;;
13291;SDS011;6714;53.056;8.690;2022-12-29T06:40:10;2.50;;;2.23;;
13291;SDS011;6714;53.056;8.690;2022-12-29T06:42:53;2.20;;;2.10;;
13291;SDS011;6714;53.056;8.690;2022-12-29T06:45:36;2.10;;;1.90;;
13291;SDS011;6714;53.056;8.690;2022-12-29T06:48:19;2.20;;;2.10;;
13291;SDS011;6714;53.056;8.690;2022-12-29T06:51:01;2.47;;;2.27;;
13291;SDS011;6714;53.056;8.690;2022-12-29T06:53:45;2.20;;;2.07;;
13291;SDS011;6714;53.056;8.690;2022-12-29T06:56:27;1.97;;;1.87;;
13291;SDS011;6714;53.056;8.690;2022-12-29T06:59:09;1.90;;;1.80;;
13291;SDS011;6714;53.056;8.690;2022-12-29T07:01:51;2.27;;;2.07;;
13291;SDS011;6714;53.056;8.690;2022-12-29T07:04:34;2.10;;;2.00;;
13291;SDS011;6714;53.056;8.690;2022-12-29T07:07:16;2.00;;;1.90;;
13291;SDS011;6714;53.056;8.690;2022-12-29T07:09:59;2.03;;;1.93;;
13291;SDS011;6714;53.056;8.690;2022-12-29T07:12:42;2.30;;;2.17;;
13291;SDS011;6714;53.056;8.690;2022-12-29T07:15:24;2.13;;;1.97;;
13291;SDS011;6714;53.056;8.690;2022-12-29T07:18:06;2.13;;;2.00;;
13291;SDS011;6714;53.056;8.690;2022-12-29T07:20:48;1.83;;;1.73;;
13291;SDS011;6714;53.056;8.690;2022-12-29T07:23:30;1.83;;;1.73;;
13291;SDS011;6714;53.056;8.690;2022-12-29T07:26:14;2.37;;;1.83;;
13291;SDS011;6714;53.056;8.690;2022-12-29T07:28:59;1.90;;;1.80;;
13291;SDS011;6714;53.056;8.690;2022-12-29T07:31:42;1.93;;;1.73;;
13291;SDS011;6714;53.056;8.690;2022-12-29T07:34:24;1.80;;;1.70;;
13291;SDS011;6714;53.056;8.690;2022-12-29T07:37:06;2.90;;;1.80;;
13291;SDS011;6714;53.056;8.690;2022-12-29T07:39:48;1.90;;;1.80;;
13291;SDS011;6714;53.056;8.690;2022-12-29T07:42:32;1.80;;;1.70;;
13291;SDS011;6714;53.056;8.690;2022-12-29T07:45:14;4.13;;;1.80;;
13291;SDS011;6714;53.056;8.690;2022-12-29T07:47:56;1.70;;;1.60;;
13291;SDS011;6714;53.056;8.690;2022-12-29T07:50:39;4.33;;;1.80;;
13291;SDS011;6714;53.056;8.690;2022-12-29T07:53:21;2.37;;;1.73;;
13291;SDS011;6714;53.056;8.690;2022-12-29T07:56:04;1.70;;;1.60;;
13291;SDS011;6714;53.056;8.690;2022-12-29T07:58:49;1.53;;;1.43;;
13291;SDS011;6714;53.056;8.690;2022-12-29T08:01:31;1.60;;;1.50;;
13291;SDS011;6714;53.056;8.690;2022-12-29T08:04:14;2.60;;;1.60;;
13291;SDS011;6714;53.056;8.690;2022-12-29T08:06:56;1.73;;;1.40;;
13291;SDS011;6714;53.056;8.690;2022-12-29T08:09:38;1.37;;;1.37;;
13291;SDS011;6714;53.056;8.690;2022-12-29T08:12:21;1.50;;;1.40;;
13291;SDS011;6714;53.056;8.690;2022-12-29T08:15:06;2.17;;;1.33;;
13291;SDS011;6714;53.056;8.690;2022-12-29T08:17:48;2.00;;;1.40;;
13291;SDS011;6714;53.056;8.690;2022-12-29T08:20:30;1.60;;;1.50;;
13291;SDS011;6714;53.056;8.690;2022-12-29T08:23:13;1.73;;;1.30;;
13291;SDS011;6714;53.056;8.690;2022-12-29T08:25:58;1.83;;;1.30;;
13291;SDS011;6714;53.056;8.690;2022-12-29T08:28:41;2.13;;;1.50;;
13291;SDS011;6714;53.056;8.690;2022-12-29T08:31:25;1.43;;;1.33;;
13291;SDS011;6714;53.056;8.690;2022-12-29T08:34:07;3.40;;;1.60;;
13291;SDS011;6714;53.056;8.690;2022-12-29T08:36:50;2.73;;;1.53;;
13291;SDS011;6714;53.056;8.690;2022-12-29T08:39:33;5.57;;;1.70;;
13291;SDS011;6714;53.056;8.690;2022-12-29T08:42:16;3.10;;;1.47;;
13291;SDS011;6714;53.056;8.690;2022-12-29T08:44:58;2.43;;;1.50;;
13291;SDS011;6714;53.056;8.690;2022-12-29T08:47:43;1.93;;;1.10;;
13291;SDS011;6714;53.056;8.690;2022-12-29T08:50:25;2.40;;;1.70;;
13291;SDS011;6714;53.056;8.690;2022-12-29T08:53:08;1.50;;;1.30;;
13291;SDS011;6714;53.056;8.690;2022-12-29T08:55:55;2.67;;;1.30;;
13291;SDS011;6714;53.056;8.690;2022-12-29T08:58:37;4.10;;;1.50;;
13291;SDS011;6714;53.056;8.690;2022-12-29T09:01:20;2.57;;;1.27;;
13291;SDS011;6714;53.056;8.690;2022-12-29T09:04:04;2.63;;;1.43;;
13291;SDS011;6714;53.056;8.690;2022-12-29T09:06:46;2.90;;;1.80;;
13291;SDS011;6714;53.056;8.690;2022-12-29T09:09:28;3.00;;;1.40;;
13291;SDS011;6714;53.056;8.690;2022-12-29T09:12:11;3.73;;;1.60;;
13291;SDS011;6714;53.056;8.690;2022-12-29T09:14:53;1.40;;;1.20;;
13291;SDS011;6714;53.056;8.690;2022-12-29T09:17:35;3.63;;;1.27;;
13291;SDS011;6714;53.056;8.690;2022-12-29T09:20:26;4.87;;;1.70;;
13291;SDS011;6714;53.056;8.690;2022-12-29T09:23:09;4.30;;;1.37;;
13291;SDS011;6714;53.056;8.690;2022-12-29T09:25:51;2.33;;;1.40;;
13291;SDS011;6714;53.056;8.690;2022-12-29T09:28:34;2.63;;;1.20;;
13291;SDS011;6714;53.056;8.690;2022-12-29T09:31:16;3.67;;;1.50;;
13291;SDS011;6714;53.056;8.690;2022-12-29T09:33:59;3.67;;;1.60;;
13291;SDS011;6714;53.056;8.690;2022-12-29T09:36:43;3.17;;;1.50;;
13291;SDS011;6714;53.056;8.690;2022-12-29T09:39:25;3.57;;;1.53;;
13291;SDS011;6714;53.056;8.690;2022-12-29T09:42:08;2.57;;;1.23;;
13291;SDS011;6714;53.056;8.690;2022-12-29T09:44:56;6.10;;;1.60;;
13291;SDS011;6714;53.056;8.690;2022-12-29T09:47:42;2.00;;;1.20;;
13291;SDS011;6714;53.056;8.690;2022-12-29T09:50:26;2.43;;;1.40;;
13291;SDS011;6714;53.056;8.690;2022-12-29T09:53:15;2.00;;;1.20;;
13291;SDS011;6714;53.056;8.690;2022-12-29T09:56:00;2.40;;;1.40;;
13291;SDS011;6714;53.056;8.690;2022-12-29T09:58:44;2.03;;;1.30;;
13291;SDS011;6714;53.056;8.690;2022-12-29T10:01:30;5.13;;;1.33;;
13291;SDS011;6714;53.056;8.690;2022-12-29T10:04:14;2.90;;;1.50;;
13291;SDS011;6714;53.056;8.690;2022-12-29T10:06:57;2.47;;;1.30;;
13291;SDS011;6714;53.056;8.690;2022-12-29T10:09:44;2.40;;;1.50;;
13291;SDS011;6714;53.056;8.690;2022-12-29T10:12:34;2.40;;;1.20;;
13291;SDS011;6714;53.056;8.690;2022-12-29T10:15:35;2.40;;;1.40;;
13291;SDS011;6714;53.056;8.690;2022-12-29T10:18:37;3.20;;;1.30;;
13291;SDS011;6714;53.056;8.690;2022-12-29T10:21:26;3.30;;;1.20;;
13291;SDS011;6714;53.056;8.690;2022-12-29T10:24:10;3.97;;;1.40;;
13291;SDS011;6714;53.056;8.690;2022-12-29T10:26:54;3.47;;;1.03;;
13291;SDS011;6714;53.056;8.690;2022-12-29T10:29:39;1.97;;;1.03;;
13291;SDS011;6714;53.056;8.690;2022-12-29T10:32:27;1.50;;;1.00;;
13291;SDS011;6714;53.056;8.690;2022-12-29T10:35:11;2.07;;;1.13;;
13291;SDS011;6714;53.056;8.690;2022-12-29T10:37:56;1.33;;;0.93;;
13291;SDS011;6714;53.056;8.690;2022-12-29T10:40:41;1.20;;;0.80;;
13291;SDS011;6714;53.056;8.690;2022-12-29T10:43:27;1.30;;;1.00;;
13291;SDS011;6714;53.056;8.690;2022-12-29T10:46:10;1.40;;;1.00;;
13291;SDS011;6714;53.056;8.690;2022-12-29T10:48:57;1.00;;;0.90;;
13291;SDS011;6714;53.056;8.690;2022-12-29T10:51:40;2.87;;;1.30;;
13291;SDS011;6714;53.056;8.690;2022-12-29T10:54:25;2.80;;;0.97;;
13291;SDS011;6714;53.056;8.690;2022-12-29T10:57:09;4.80;;;1.40;;
13291;SDS011;6714;53.056;8.690;2022-12-29T10:59:54;2.83;;;1.30;;
13291;SDS011;6714;53.056;8.690;2022-12-29T11:02:45;2.17;;;1.00;;
13291;SDS011;6714;53.056;8.690;2022-12-29T11:05:31;2.43;;;1.03;;
13291;SDS011;6714;53.056;8.690;2022-12-29T11:08:17;2.13;;;1.03;;
13291;SDS011;6714;53.056;8.690;2022-12-29T11:11:02;2.93;;;1.10;;
13291;SDS011;6714;53.056;8.690;2022-12-29T11:13:47;3.53;;;1.20;;
13291;SDS011;6714;53.056;8.690;2022-12-29T11:16:31;2.47;;;1.20;;
13291;SDS011;6714;53.056;8.690;2022-12-29T11:19:20;1.90;;;1.13;;
13291;SDS011;6714;53.056;8.690;2022-12-29T11:22:12;5.00;;;1.77;;
13291;SDS011;6714;53.056;8.690;2022-12-29T11:25:05;2.10;;;1.30;;
13291;SDS011;6714;53.056;8.690;2022-12-29T11:27:54;2.03;;;1.20;;
13291;SDS011;6714;53.056;8.690;2022-12-29T11:30:37;2.30;;;1.17;;
13291;SDS011;6714;53.056;8.690;2022-12-29T11:33:20;2.73;;;1.30;;
13291;SDS011;6714;53.056;8.690;2022-12-29T11:36:04;3.40;;;1.50;;
13291;SDS011;6714;53.056;8.690;2022-12-29T11:38:50;2.80;;;1.27;;
13291;SDS011;6714;53.056;8.690;2022-12-29T11:41:33;5.67;;;1.30;;
13291;SDS011;6714;53.056;8.690;2022-12-29T11:44:15;2.10;;;1.30;;
13291;SDS011;6714;53.056;8.690;2022-12-29T11:46:57;4.07;;;1.67;;
13291;SDS011;6714;53.056;8.690;2022-12-29T11:49:41;3.67;;;1.67;;
13291;SDS011;6714;53.056;8.690;2022-12-29T11:52:32;3.17;;;1.67;;
13291;SDS011;6714;53.056;8.690;2022-12-29T11:55:16;3.27;;;1.27;;
13291;SDS011;6714;53.056;8.690;2022-12-29T11:58:00;8.60;;;1.50;;
13291;SDS011;6714;53.056;8.690;2022-12-29T12:00:44;2.80;;;1.40;;
13291;SDS011;6714;53.056;8.690;2022-12-29T12:03:27;3.53;;;1.23;;
13291;SDS011;6714;53.056;8.690;2022-12-29T12:06:15;4.07;;;1.50;;
13291;SDS011;6714;53.056;8.690;2022-12-29T12:08:59;3.63;;;1.37;;
13291;SDS011;6714;53.056;8.690;2022-12-29T12:11:43;3.10;;;1.20;;
13291;SDS011;6714;53.056;8.690;2022-12-29T12:14:30;3.23;;;1.40;;
13291;SDS011;6714;53.056;8.690;2022-12-29T12:17:14;3.37;;;1.30;;
13291;SDS011;6714;53.056;8.690;2022-12-29T12:19:59;4.53;;;1.60;;
13291;SDS011;6714;53.056;8.690;2022-12-29T12:22:46;3.83;;;1.30;;
13291;SDS011;6714;53.056;8.690;2022-12-29T12:25:34;2.03;;;1.33;;
13291;SDS011;6714;53.056;8.690;2022-12-29T12:28:19;3.87;;;1.40;;
13291;SDS011;6714;53.056;8.690;2022-12-29T12:31:02;4.10;;;1.40;;
13291;SDS011;6714;53.056;8.690;2022-12-29T12:33:48;4.23;;;1.40;;
13291;SDS011;6714;53.056;8.690;2022-12-29T12:36:42;6.07;;;1.43;;
13291;SDS011;6714;53.056;8.690;2022-12-29T12:39:34;3.80;;;1.60;;
13291;SDS011;6714;53.056;8.690;2022-12-29T12:42:21;5.90;;;1.57;;
13291;SDS011;6714;53.056;8.690;2022-12-29T12:45:17;3.30;;;1.50;;
13291;SDS011;6714;53.056;8.690;2022-12-29T12:48:12;4.37;;;1.53;;
13291;SDS011;6714;53.056;8.690;2022-12-29T12:50:58;4.53;;;1.60;;
13291;SDS011;6714;53.056;8.690;2022-12-29T12:53:48;2.83;;;1.37;;
13291;SDS011;6714;53.056;8.690;2022-12-29T12:56:42;2.57;;;1.10;;
13291;SDS011;6714;53.056;8.690;2022-12-29T12:59:30;3.13;;;1.27;;
13291;SDS011;6714;53.056;8.690;2022-12-29T13:02:17;4.37;;;1.40;;
13291;SDS011;6714;53.056;8.690;2022-12-29T13:08:18;2.80;;;1.20;;
13291;SDS011;6714;53.056;8.690;2022-12-29T13:11:08;4.93;;;1.33;;
13291;SDS011;6714;53.056;8.690;2022-12-29T13:14:13;3.30;;;1.30;;
13291;SDS011;6714;53.056;8.690;2022-12-29T13:16:59;2.77;;;1.40;;
13291;SDS011;6714;53.056;8.690;2022-12-29T13:19:45;1.67;;;1.17;;
13291;SDS011;6714;53.056;8.690;2022-12-29T13:22:30;4.17;;;1.30;;
13291;SDS011;6714;53.056;8.690;2022-12-29T13:25:22;4.50;;;1.20;;
13291;SDS011;6714;53.056;8.690;2022-12-29T13:28:06;3.90;;;1.37;;
13291;SDS011;6714;53.056;8.690;2022-12-29T13:30:56;4.07;;;1.40;;
13291;SDS011;6714;53.056;8.690;2022-12-29T13:33:40;3.13;;;1.20;;
13291;SDS011;6714;53.056;8.690;2022-12-29T13:36:25;3.07;;;1.30;;
13291;SDS011;6714;53.056;8.690;2022-12-29T13:39:10;2.00;;;1.10;;
13291;SDS011;6714;53.056;8.690;2022-12-29T13:41:53;2.40;;;1.07;;
13291;SDS011;6714;53.056;8.690;2022-12-29T13:44:37;2.50;;;1.30;;
13291;SDS011;6714;53.056;8.690;2022-12-29T13:47:24;2.10;;;1.20;;
13291;SDS011;6714;53.056;8.690;2022-12-29T13:50:12;2.17;;;1.30;;
13291;SDS011;6714;53.056;8.690;2022-12-29T13:52:57;1.63;;;1.23;;
13291;SDS011;6714;53.056;8.690;2022-12-29T13:55:44;2.00;;;1.20;;
13291;SDS011;6714;53.056;8.690;2022-12-29T13:58:30;3.23;;;1.20;;
13291;SDS011;6714;53.056;8.690;2022-12-29T14:01:14;1.97;;;1.20;;
13291;SDS011;6714;53.056;8.690;2022-12-29T14:04:11;3.50;;;1.30;;
13291;SDS011;6714;53.056;8.690;2022-12-29T14:07:01;3.07;;;1.10;;
13291;SDS011;6714;53.056;8.690;2022-12-29T14:09:45;2.93;;;1.40;;
13291;SDS011;6714;53.056;8.690;2022-12-29T14:12:29;3.83;;;1.67;;
13291;SDS011;6714;53.056;8.690;2022-12-29T14:15:22;2.13;;;1.20;;
13291;SDS011;6714;53.056;8.690;2022-12-29T14:18:10;3.40;;;1.60;;
13291;SDS011;6714;53.056;8.690;2022-12-29T14:20:55;3.97;;;1.60;;
13291;SDS011;6714;53.056;8.690;2022-12-29T14:23:38;3.83;;;1.63;;
13291;SDS011;6714;53.056;8.690;2022-12-29T14:26:33;2.53;;;1.30;;
13291;SDS011;6714;53.056;8.690;2022-12-29T14:29:22;6.10;;;1.90;;
13291;SDS011;6714;53.056;8.690;2022-12-29T14:32:35;3.77;;;1.23;;
13291;SDS011;6714;53.056;8.690;2022-12-29T14:35:37;5.17;;;1.53;;
13291;SDS011;6714;53.056;8.690;2022-12-29T14:38:25;2.80;;;1.20;;
13291;SDS011;6714;53.056;8.690;2022-12-29T14:41:16;2.73;;;1.30;;
13291;SDS011;6714;53.056;8.690;2022-12-29T14:44:03;5.23;;;1.60;;
13291;SDS011;6714;53.056;8.690;2022-12-29T14:46:57;3.80;;;1.40;;
13291;SDS011;6714;53.056;8.690;2022-12-29T14:49:41;3.40;;;1.50;;
13291;SDS011;6714;53.056;8.690;2022-12-29T14:52:25;5.30;;;2.00;;
13291;SDS011;6714;53.056;8.690;2022-12-29T14:58:06;5.50;;;1.70;;
13291;SDS011;6714;53.056;8.690;2022-12-29T15:00:53;2.10;;;1.30;;
13291;SDS011;6714;53.056;8.690;2022-12-29T15:03:38;5.10;;;2.00;;
13291;SDS011;6714;53.056;8.690;2022-12-29T15:06:25;4.33;;;1.60;;
13291;SDS011;6714;53.056;8.690;2022-12-29T15:09:10;3.93;;;1.47;;
13291;SDS011;6714;53.056;8.690;2022-12-29T15:11:56;6.83;;;2.07;;
13291;SDS011;6714;53.056;8.690;2022-12-29T15:14:49;4.17;;;1.80;;
13291;SDS011;6714;53.056;8.690;2022-12-29T15:17:33;3.37;;;1.50;;
13291;SDS011;6714;53.056;8.690;2022-12-29T15:20:20;3.13;;;1.50;;
13291;SDS011;6714;53.056;8.690;2022-12-29T15:23:07;5.30;;;1.50;;
13291;SDS011;6714;53.056;8.690;2022-12-29T15:25:52;3.40;;;1.63;;
13291;SDS011;6714;53.056;8.690;2022-12-29T15:28:39;4.53;;;1.90;;
13291;SDS011;6714;53.056;8.690;2022-12-29T15:31:24;3.60;;;1.70;;
13291;SDS011;6714;53.056;8.690;2022-12-29T15:34:09;5.30;;;1.77;;
13291;SDS011;6714;53.056;8.690;2022-12-29T15:36:52;4.13;;;1.47;;
13291;SDS011;6714;53.056;8.690;2022-12-29T15:39:37;3.53;;;1.70;;
13291;SDS011;6714;53.056;8.690;2022-12-29T15:42:24;2.37;;;1.47;;
13291;SDS011;6714;53.056;8.690;2022-12-29T15:45:08;6.33;;;1.63;;
13291;SDS011;6714;53.056;8.690;2022-12-29T15:47:53;2.30;;;1.53;;
13291;SDS011;6714;53.056;8.690;2022-12-29T15:50:37;4.43;;;1.80;;
13291;SDS011;6714;53.056;8.690;2022-12-29T15:53:21;5.47;;;1.90;;
13291;SDS011;6714;53.056;8.690;2022-12-29T15:56:09;3.50;;;2.00;;
13291;SDS011;6714;53.056;8.690;2022-12-29T15:58:52;3.20;;;1.67;;
13291;SDS011;6714;53.056;8.690;2022-12-29T16:01:34;3.67;;;1.77;;
13291;SDS011;6714;53.056;8.690;2022-12-29T16:04:19;4.27;;;1.90;;
13291;SDS011;6714;53.056;8.690;2022-12-29T16:07:03;2.87;;;1.60;;
13291;SDS011;6714;53.056;8.690;2022-12-29T16:09:46;3.47;;;1.60;;
13291;SDS011;6714;53.056;8.690;2022-12-29T16:12:30;3.47;;;1.60;;
13291;SDS011;6714;53.056;8.690;2022-12-29T16:15:13;3.03;;;1.80;;
13291;SDS011;6714;53.056;8.690;2022-12-29T16:17:56;4.03;;;1.87;;
13291;SDS011;6714;53.056;8.690;2022-12-29T16:20:40;3.67;;;1.90;;
13291;SDS011;6714;53.056;8.690;2022-12-29T16:23:23;3.63;;;1.87;;
13291;SDS011;6714;53.056;8.690;2022-12-29T16:26:10;2.60;;;1.60;;
13291;SDS011;6714;53.056;8.690;2022-12-29T16:28:58;3.13;;;1.90;;
13291;SDS011;6714;53.056;8.690;2022-12-29T16:31:48;2.67;;;1.73;;
13291;SDS011;6714;53.056;8.690;2022-12-29T16:34:32;2.27;;;1.77;;
13291;SDS011;6714;53.056;8.690;2022-12-29T16:37:26;3.90;;;1.80;;
13291;SDS011;6714;53.056;8.690;2022-12-29T16:40:26;3.33;;;1.90;;
13291;SDS011;6714;53.056;8.690;2022-12-29T16:43:18;5.07;;;2.33;;
13291;SDS011;6714;53.056;8.690;2022-12-29T16:49:06;3.33;;;1.80;;
13291;SDS011;6714;53.056;8.690;2022-12-29T16:51:56;3.03;;;1.60;;
13291;SDS011;6714;53.056;8.690;2022-12-29T16:54:43;4.63;;;2.13;;
13291;SDS011;6714;53.056;8.690;2022-12-29T16:57:30;4.40;;;2.50;;
13291;SDS011;6714;53.056;8.690;2022-12-29T17:00:17;4.70;;;2.30;;
13291;SDS011;6714;53.056;8.690;2022-12-29T17:03:00;6.30;;;2.60;;